Time;durP1;ratioP1;P1;durP2;ratioP2;P2;SDS_P1;SDS_P2;PMS_P1;PMS_P2;Temp;Humidity;BMP_temperature;BMP_pressure;BME280_temperature;BME280_humidity;BME280_pressure;Samples;Min_cycle;Max_cycle;Signal;HPM_P1;HPM_P2
2022/07/23 00:01:29;;;;;;;;;17.25;16.00;;;;;21.88;70.63;101534.47;4997074;28;45309;-84
2022/07/23 00:03:55;;;;;;;;;21.75;18.75;;;;;21.91;70.06;101540.44;5015407;28;45569;-83
2022/07/23 00:06:21;;;;;;;;;22.75;18.00;;;;;21.90;70.01;101537.88;5015388;28;45379;-84
2022/07/23 00:08:47;;;;;;;;;26.25;20.00;;;;;21.91;70.07;101535.13;4997445;28;45649;-83
2022/07/23 00:11:12;;;;;;;;;24.00;23.00;;;;;21.91;70.16;101539.59;5015200;28;46590;-84
2022/07/23 00:13:38;;;;;;;;;18.75;16.50;;;;;21.94;69.60;101540.25;4997565;28;45493;-84
2022/07/23 00:16:03;;;;;;;;;22.75;20.00;;;;;21.92;69.16;101546.59;4998374;28;45656;-84
2022/07/23 00:18:29;;;;;;;;;28.25;25.00;;;;;21.86;69.20;101553.16;5018444;28;48118;-84
2022/07/23 00:20:54;;;;;;;;;30.50;28.00;;;;;21.79;70.02;101541.22;5000804;28;45401;-83
2022/07/23 00:23:19;;;;;;;;;30.00;27.25;;;;;21.73;70.41;101533.66;5000256;28;61145;-83
2022/07/23 00:25:45;;;;;;;;;35.50;28.00;;;;;21.66;70.45;101535.84;5000535;28;51851;-83
2022/07/23 00:28:11;;;;;;;;;30.25;27.25;;;;;21.64;70.70;101540.41;5017496;28;71046;-84
2022/07/23 00:30:37;;;;;;;;;28.50;24.00;;;;;21.59;71.25;101542.47;5000235;28;45956;-83
2022/07/23 00:33:07;;;;;;;;;30.50;22.75;;;;;21.60;70.69;101539.75;5000642;28;45543;-83
2022/07/23 00:35:35;;;;;;;;;28.75;24.50;;;;;21.53;70.84;101534.94;4984319;28;45330;-84
2022/07/23 00:38:01;;;;;;;;;27.75;25.00;;;;;21.56;71.43;101543.53;5000701;28;46515;-84
2022/07/23 00:40:27;;;;;;;;;32.25;26.25;;;;;21.60;71.17;101544.16;5000541;28;45904;-84
2022/07/23 00:42:53;;;;;;;;;32.50;29.00;;;;;21.61;70.76;101537.94;5000800;28;45362;-84
2022/07/23 00:45:18;;;;;;;;;28.25;27.75;;;;;21.59;70.92;101529.22;4983808;28;45432;-83
2022/07/23 00:47:44;;;;;;;;;35.50;27.25;;;;;21.58;70.57;101533.69;5018207;28;45383;-83
2022/07/23 00:50:10;;;;;;;;;35.25;32.00;;;;;21.59;70.75;101537.19;5018229;28;45403;-83
2022/07/23 00:52:37;;;;;;;;;30.50;28.00;;;;;21.58;70.53;101541.63;5018247;28;45240;-83
2022/07/23 00:55:03;;;;;;;;;31.00;25.50;;;;;21.54;71.06;101532.16;5000388;28;45570;-83
2022/07/23 00:57:29;;;;;;;;;30.50;24.25;;;;;21.53;70.63;101534.94;5017822;28;47361;-83
2022/07/23 00:59:55;;;;;;;;;26.50;24.75;;;;;21.51;71.12;101532.38;4998819;28;73026;-83
2022/07/23 01:02:20;;;;;;;;;24.00;22.50;;;;;21.54;70.81;101529.50;5000060;28;45340;-83
2022/07/23 01:04:46;;;;;;;;;28.50;26.25;;;;;21.50;70.77;101533.31;4999713;28;57625;-83
2022/07/23 01:07:11;;;;;;;;;25.25;23.50;;;;;21.49;70.41;101528.09;5000142;28;46343;-83
2022/07/23 01:09:37;;;;;;;;;26.25;22.00;;;;;21.46;70.96;101531.81;5016818;28;73988;-83
2022/07/23 01:12:03;;;;;;;;;25.50;24.25;;;;;21.51;71.11;101528.84;4983695;28;45405;-84
2022/07/23 01:14:28;;;;;;;;;23.25;22.75;;;;;21.53;70.83;101526.97;5017532;28;45426;-84
2022/07/23 01:16:53;;;;;;;;;27.75;21.75;;;;;21.55;70.70;101527.72;4999601;28;52134;-84
2022/07/23 01:19:19;;;;;;;;;24.25;20.75;;;;;21.54;71.07;101524.22;4999397;28;65956;-83
2022/07/23 01:21:49;;;;;;;;;25.75;22.00;;;;;21.53;70.64;101525.19;4999188;28;64138;-83
2022/07/23 01:24:15;;;;;;;;;24.25;19.25;;;;;21.53;70.75;101525.19;5017863;28;45431;-83
2022/07/23 01:26:44;;;;;;;;;20.25;19.50;;;;;21.54;70.70;101524.22;4982774;28;48138;-83
2022/07/23 01:29:10;;;;;;;;;22.25;19.75;;;;;21.50;69.87;101522.72;4983190;28;45714;-83
2022/07/23 01:31:35;;;;;;;;;25.75;19.50;;;;;21.45;70.35;101517.72;4980063;28;45367;-83
2022/07/23 01:34:01;;;;;;;;;20.25;18.50;;;;;21.46;70.54;101524.69;4979513;28;64643;-83
2022/07/23 01:36:26;;;;;;;;;25.25;21.75;;;;;21.46;70.68;101527.34;4997916;28;46172;-84
2022/07/23 01:38:52;;;;;;;;;24.75;20.75;;;;;21.44;70.79;101520.41;4997935;28;61824;-84
2022/07/23 01:41:17;;;;;;;;;19.25;18.00;;;;;21.44;70.71;101523.06;4980602;28;59103;-84
2022/07/23 01:43:43;;;;;;;;;21.75;17.75;;;;;21.49;70.67;101528.97;4997360;28;45234;-83
2022/07/23 01:46:08;;;;;;;;;22.00;20.25;;;;;21.45;70.10;101520.38;4997279;28;45735;-83
2022/07/23 01:48:34;;;;;;;;;22.50;19.50;;;;;21.45;70.70;101522.13;5000089;28;67720;-83
2022/07/23 01:50:59;;;;;;;;;25.00;20.25;;;;;21.45;69.99;101519.50;4986040;28;45373;-84
2022/07/23 01:53:24;;;;;;;;;19.75;18.25;;;;;21.39;70.51;101502.16;5002704;28;68109;-84
2022/07/23 01:55:50;;;;;;;;;22.75;18.50;;;;;21.40;70.55;101513.63;4984611;28;70839;-84
2022/07/23 01:58:15;;;;;;;;;20.75;20.50;;;;;21.39;70.45;101517.19;4985277;28;50373;-84
2022/07/23 02:00:40;;;;;;;;;20.50;18.00;;;;;21.42;70.72;101515.22;4975069;28;55448;-83
2022/07/23 02:03:06;;;;;;;;;23.75;18.25;;;;;21.43;70.25;101514.28;5021972;28;45481;-84
2022/07/23 02:05:31;;;;;;;;;16.75;15.75;;;;;21.44;70.18;101518.66;5021791;28;74667;-84
2022/07/23 02:07:58;;;;;;;;;18.50;16.75;;;;;21.43;69.79;101516.06;5004802;28;58320;-84
2022/07/23 02:10:24;;;;;;;;;20.25;17.00;;;;;21.41;70.01;101520.59;5021956;28;45708;-85
2022/07/23 02:12:49;;;;;;;;;21.50;16.00;;;;;21.37;69.66;101508.50;5023380;28;45388;-84
2022/07/23 02:15:15;;;;;;;;;16.75;16.00;;;;;21.40;70.06;101517.09;5003920;28;46926;-84
2022/07/23 02:17:40;;;;;;;;;20.75;18.75;;;;;21.41;70.18;101516.19;4999753;28;45474;-85
2022/07/23 02:20:06;;;;;;;;;24.00;18.00;;;;;21.43;70.47;101519.56;4999230;28;45333;-83
2022/07/23 02:22:32;;;;;;;;;20.25;15.75;;;;;21.44;69.94;101518.66;5016572;28;45506;-83
2022/07/23 02:24:57;;;;;;;;;19.75;18.00;;;;;21.42;69.56;101523.16;5016639;28;46207;-84
2022/07/23 02:27:23;;;;;;;;;21.50;16.50;;;;;21.38;69.42;101518.16;5016433;28;45376;-84
2022/07/23 02:29:48;;;;;;;;;18.00;17.00;;;;;21.37;69.29;101527.03;4982482;28;45395;-84
2022/07/23 02:32:14;;;;;;;;;22.00;17.50;;;;;21.33;69.45;101534.31;4979153;28;45527;-85
2022/07/23 02:34:39;;;;;;;;;18.25;16.25;;;;;21.29;69.34;101532.81;4979015;28;64901;-85
2022/07/23 02:37:04;;;;;;;;;18.00;18.00;;;;;21.26;69.43;101538.28;4996882;28;45368;-84
2022/07/23 02:39:30;;;;;;;;;21.50;16.25;;;;;21.16;69.31;101534.50;4995711;28;45387;-84
2022/07/23 02:41:56;;;;;;;;;21.25;15.75;;;;;21.16;69.61;101542.47;4978753;28;45651;-84
2022/07/23 02:44:22;;;;;;;;;16.00;15.00;;;;;21.14;69.71;101549.66;4962166;28;58414;-84
2022/07/23 02:46:47;;;;;;;;;18.50;16.00;;;;;21.14;69.88;101533.75;4978135;28;64087;-84
2022/07/23 02:49:12;;;;;;;;;19.50;18.00;;;;;21.12;69.48;101538.28;4995778;28;68725;-85
2022/07/23 02:51:38;;;;;;;;;17.00;15.75;;;;;21.12;69.53;101541.78;4978121;28;63272;-85
2022/07/23 02:54:03;;;;;;;;;20.75;15.25;;;;;21.05;69.32;101536.00;4978843;28;47334;-84
2022/07/23 02:56:28;;;;;;;;;15.75;14.50;;;;;21.04;68.88;101539.63;4995201;28;66767;-85
2022/07/23 02:58:54;;;;;;;;;16.75;15.00;;;;;21.06;69.30;101552.72;4978741;28;46434;-84
2022/07/23 03:01:19;;;;;;;;;16.75;16.00;;;;;21.06;69.39;101552.72;5006595;28;69627;-84
2022/07/23 03:03:44;;;;;;;;;19.75;17.75;;;;;21.04;69.26;101552.84;4997421;28;70393;-84
2022/07/23 03:06:10;;;;;;;;;17.50;15.00;;;;;21.07;69.87;101565.88;4980640;28;75432;-84
2022/07/23 03:08:35;;;;;;;;;22.00;16.25;;;;;21.08;69.36;101570.25;4982047;28;45409;-83
2022/07/23 03:11:00;;;;;;;;;20.75;16.00;;;;;21.05;69.30;101557.19;4997055;28;64067;-84
2022/07/23 03:13:26;;;;;;;;;18.00;13.75;;;;;21.04;69.27;101554.63;4997303;28;68747;-84
2022/07/23 03:15:51;;;;;;;;;14.75;14.00;;;;;21.04;68.95;101560.78;4981724;28;45484;-84
2022/07/23 03:18:16;;;;;;;;;21.00;13.00;;;;;21.00;68.38;101553.94;5015894;28;45182;-84
2022/07/23 03:20:42;;;;;;;;;17.50;14.00;;;;;20.95;68.79;101558.69;4997882;28;49122;-83
2022/07/23 03:23:07;;;;;;;;;17.25;15.00;;;;;20.96;69.11;101556.88;4981218;28;48986;-83
2022/07/23 03:25:32;;;;;;;;;18.25;17.00;;;;;20.94;69.34;101556.13;4997587;28;45403;-84
2022/07/23 03:27:58;;;;;;;;;17.00;15.00;;;;;20.96;69.28;101565.66;5015349;28;46543;-84
2022/07/23 03:30:23;;;;;;;;;15.75;14.25;;;;;20.93;69.01;101565.88;5015643;28;45420;-83
2022/07/23 03:32:48;;;;;;;;;16.75;14.75;;;;;20.93;68.84;101570.28;5014705;28;75234;-84
2022/07/23 03:35:14;;;;;;;;;15.00;12.75;;;;;20.95;68.55;101573.69;4997142;28;67514;-84
2022/07/23 03:37:39;;;;;;;;;21.25;16.50;;;;;20.87;68.59;101564.41;4997914;28;45435;-84
2022/07/23 03:40:05;;;;;;;;;15.75;14.50;;;;;20.85;68.59;101565.47;4996630;28;68132;-84
2022/07/23 03:42:30;;;;;;;;;14.25;13.75;;;;;20.83;68.51;101562.06;4997874;28;46149;-86
2022/07/23 03:44:56;;;;;;;;;17.75;15.00;;;;;20.82;69.27;101570.91;5015443;28;45438;-85
2022/07/23 03:47:21;;;;;;;;;17.00;14.25;;;;;20.79;69.14;101568.47;4981497;28;45471;-85
2022/07/23 03:49:48;;;;;;;;;21.00;17.25;;;;;20.76;69.20;101561.56;5016296;28;45376;-84
2022/07/23 03:52:13;;;;;;;;;23.50;17.00;;;;;20.74;69.23;101559.94;5001035;28;47223;-84
2022/07/23 03:54:39;;;;;;;;;16.75;16.00;;;;;20.74;69.82;101567.88;5018777;28;45467;-84
2022/07/23 03:57:04;;;;;;;;;20.25;14.75;;;;;20.74;69.43;101567.88;5018231;28;57936;-84
2022/07/23 03:59:29;;;;;;;;;19.75;15.50;;;;;20.72;69.68;101567.13;5001259;28;45431;-84
2022/07/23 04:01:55;;;;;;;;;15.75;14.75;;;;;20.75;69.82;101564.31;5000307;28;59623;-84
2022/07/23 04:04:20;;;;;;;;;16.25;15.00;;;;;20.76;69.79;101569.47;5017790;28;67061;-84
2022/07/23 04:06:46;;;;;;;;;20.50;17.00;;;;;20.78;69.67;101572.94;5018606;28;51299;-84
2022/07/23 04:09:11;;;;;;;;;18.25;16.75;;;;;20.79;69.79;101569.31;5000123;28;64712;-84
2022/07/23 04:11:37;;;;;;;;;19.00;15.00;;;;;20.84;69.21;101580.50;5000907;28;46669;-84
2022/07/23 04:14:02;;;;;;;;;26.75;16.00;;;;;20.88;69.32;101581.16;5017748;28;72184;-84
2022/07/23 04:16:28;;;;;;;;;19.25;17.50;;;;;20.86;69.27;101575.13;5018596;28;45423;-84
2022/07/23 04:18:53;;;;;;;;;20.00;17.00;;;;;20.84;69.03;101577.00;5018662;28;45424;-84
2022/07/23 04:21:19;;;;;;;;;17.50;15.50;;;;;20.83;69.49;101585.88;5000671;28;48615;-84
2022/07/23 04:23:44;;;;;;;;;19.25;15.00;;;;;20.86;69.63;101588.34;5017219;28;65245;-84
2022/07/23 04:26:09;;;;;;;;;20.00;18.50;;;;;20.89;69.30;101593.44;5018689;28;45224;-84
2022/07/23 04:28:35;;;;;;;;;18.00;16.00;;;;;20.86;68.90;101591.84;5000690;28;45480;-85
2022/07/23 04:31:00;;;;;;;;;19.00;16.75;;;;;20.86;68.44;101591.84;5018105;28;46584;-84
2022/07/23 04:33:26;;;;;;;;;17.75;16.25;;;;;20.82;68.50;101594.72;5018314;28;47330;-85
2022/07/23 04:35:51;;;;;;;;;17.50;13.00;;;;;20.72;67.92;101593.59;5000666;28;45509;-84
2022/07/23 04:38:16;;;;;;;;;17.25;14.25;;;;;20.68;67.81;101600.84;5000430;28;45463;-84
2022/07/23 04:40:42;;;;;;;;;19.50;19.00;;;;;20.61;67.64;101597.69;4983503;28;61356;-84
2022/07/23 04:43:07;;;;;;;;;21.50;15.75;;;;;20.56;68.21;101601.50;5017157;28;72930;-84
2022/07/23 04:45:32;;;;;;;;;16.00;15.00;;;;;20.55;67.67;101603.31;5000622;28;45330;-84
2022/07/23 04:47:58;;;;;;;;;19.00;15.00;;;;;20.50;68.62;101598.28;5017635;28;60503;-84
2022/07/23 04:50:23;;;;;;;;;15.50;15.00;;;;;20.52;68.14;101608.75;5017238;28;60166;-85
2022/07/23 04:52:49;;;;;;;;;18.50;14.75;;;;;20.51;68.28;101601.78;5000052;28;45434;-84
2022/07/23 04:55:15;;;;;;;;;21.75;17.00;;;;;20.56;68.57;101604.16;5018000;28;45399;-85
2022/07/23 04:57:40;;;;;;;;;19.75;16.25;;;;;20.60;68.57;101609.22;5018068;28;45408;-84
2022/07/23 05:00:06;;;;;;;;;17.00;16.00;;;;;20.60;68.54;101608.34;4999644;28;58687;-85
2022/07/23 05:02:31;;;;;;;;;20.50;15.00;;;;;20.61;68.55;101608.25;5016840;28;46325;-84
2022/07/23 05:04:57;;;;;;;;;19.50;16.25;;;;;20.63;68.78;101601.09;5000487;28;45327;-84
2022/07/23 05:07:22;;;;;;;;;17.75;13.75;;;;;20.74;68.79;101610.22;5017682;28;45363;-84
2022/07/23 05:09:48;;;;;;;;;19.25;15.00;;;;;20.76;68.59;101603.88;4999888;28;47972;-84
2022/07/23 05:12:13;;;;;;;;;17.50;16.00;;;;;20.80;68.60;101612.50;4998942;28;73126;-84
2022/07/23 05:14:39;;;;;;;;;20.50;15.50;;;;;20.82;69.06;101619.41;5018184;28;45398;-84
2022/07/23 05:17:04;;;;;;;;;18.25;15.50;;;;;20.86;68.60;101613.00;5000019;28;45561;-85
2022/07/23 05:19:29;;;;;;;;;24.25;19.50;;;;;20.89;68.63;101609.31;5017558;28;46282;-84
2022/07/23 05:21:55;;;;;;;;;19.75;16.50;;;;;20.93;68.92;101608.22;4998351;28;70727;-84
2022/07/23 05:24:20;;;;;;;;;21.25;17.75;;;;;20.96;68.44;101607.16;4999233;28;63574;-84
2022/07/23 05:26:45;;;;;;;;;17.00;16.25;;;;;21.02;68.36;101606.78;5016856;28;64642;-84
2022/07/23 05:29:11;;;;;;;;;20.75;16.75;;;;;21.03;68.14;101605.88;5017386;28;46420;-84
2022/07/23 05:31:36;;;;;;;;;19.00;16.75;;;;;21.05;67.91;101602.19;5016723;28;60063;-84
2022/07/23 05:34:02;;;;;;;;;19.50;17.00;;;;;21.07;68.15;101600.28;4999117;28;66082;-85
2022/07/23 05:36:27;;;;;;;;;18.75;15.50;;;;;21.12;67.83;101604.44;4999309;28;45475;-84
2022/07/23 05:38:52;;;;;;;;;19.25;19.00;;;;;21.19;67.42;101603.13;5016838;28;61341;-84
2022/07/23 05:41:18;;;;;;;;;19.00;17.25;;;;;21.21;67.19;101601.25;4999618;28;45364;-84
2022/07/23 05:43:43;;;;;;;;;21.50;18.00;;;;;21.23;67.38;101609.97;5017626;28;45378;-85
2022/07/23 05:46:08;;;;;;;;;17.25;15.25;;;;;21.24;67.40;101616.97;4999665;28;45512;-84
2022/07/23 05:48:34;;;;;;;;;24.75;19.00;;;;;21.25;67.20;101611.56;4982453;28;61276;-84
2022/07/23 05:51:00;;;;;;;;;21.00;17.75;;;;;21.31;67.38;101617.47;4998962;28;46045;-84
2022/07/23 05:53:26;;;;;;;;;21.75;19.00;;;;;21.32;67.21;101608.56;5017208;28;45426;-84
2022/07/23 05:55:51;;;;;;;;;21.50;19.75;;;;;21.38;67.39;101610.84;5016488;28;58068;-84
2022/07/23 05:58:16;;;;;;;;;25.00;21.50;;;;;21.37;67.05;101614.44;4998964;28;57182;-84
2022/07/23 06:00:42;;;;;;;;;25.25;21.00;;;;;21.40;67.00;101616.91;4998094;28;72561;-84
2022/07/23 06:03:07;;;;;;;;;25.75;21.50;;;;;21.46;66.78;101619.19;5017301;28;45285;-84
2022/07/23 06:05:32;;;;;;;;;33.50;26.00;;;;;21.46;66.63;101625.34;4981499;28;70347;-85
2022/07/23 06:07:58;;;;;;;;;29.75;28.25;;;;;21.38;67.03;101622.28;4998703;28;59684;-84
2022/07/23 06:10:23;;;;;;;;;33.50;28.25;;;;;21.39;67.14;101626.63;4982009;28;70069;-84
2022/07/23 06:12:48;;;;;;;;;35.00;26.75;;;;;21.39;67.40;101625.78;4981744;28;66811;-84
2022/07/23 06:15:14;;;;;;;;;37.75;27.00;;;;;21.42;66.96;101625.59;4999075;28;45518;-84
2022/07/23 06:17:39;;;;;;;;;38.00;30.00;;;;;21.43;67.40;101629.94;5016354;28;56962;-84
2022/07/23 06:20:09;;;;;;;;;38.00;31.75;;;;;21.45;67.41;101636.91;5016348;28;45224;-84
2022/07/23 06:22:35;;;;;;;;;34.00;30.00;;;;;21.38;67.60;101626.75;4998857;28;45463;-84
2022/07/23 06:25:01;;;;;;;;;41.75;30.75;;;;;21.36;67.81;101628.59;4999111;28;45476;-85
2022/07/23 06:27:26;;;;;;;;;40.75;32.50;;;;;21.35;67.60;101632.22;4998205;28;61726;-85
2022/07/23 06:29:52;;;;;;;;;45.25;32.75;;;;;21.36;67.82;101641.84;5016485;28;45265;-85
2022/07/23 06:32:17;;;;;;;;;40.75;32.75;;;;;21.40;68.44;101646.03;4998864;28;45547;-84
2022/07/23 06:34:42;;;;;;;;;41.75;32.00;;;;;21.45;67.85;101646.63;5015584;28;63426;-84
2022/07/23 06:37:08;;;;;;;;;43.75;33.00;;;;;21.43;67.79;101644.06;5015528;28;69528;-84
2022/07/23 06:39:33;;;;;;;;;43.25;35.25;;;;;21.45;67.94;101650.13;4998683;28;45404;-85
2022/07/23 06:41:58;;;;;;;;;48.00;35.25;;;;;21.43;67.78;101644.06;4997943;28;59826;-84
2022/07/23 06:44:24;;;;;;;;;40.00;31.00;;;;;21.40;68.38;101638.09;4982287;28;45588;-84
2022/07/23 06:46:49;;;;;;;;;46.75;35.75;;;;;21.39;67.95;101639.88;5015405;28;63344;-84
2022/07/23 06:49:14;;;;;;;;;48.25;33.50;;;;;21.42;68.12;101644.97;4997390;28;68309;-84
2022/07/23 06:51:40;;;;;;;;;42.00;32.50;;;;;21.47;68.06;101647.41;4997680;28;66107;-84
2022/07/23 06:54:05;;;;;;;;;50.00;38.00;;;;;21.50;68.11;101649.84;5015753;28;58166;-84
2022/07/23 06:56:31;;;;;;;;;43.00;34.00;;;;;21.52;68.19;101647.94;4981847;28;47344;-84
2022/07/23 06:58:56;;;;;;;;;51.50;36.25;;;;;21.56;68.24;101656.56;5015665;28;58712;-85
2022/07/23 07:01:21;;;;;;;;;44.75;34.50;;;;;21.59;67.70;101659.88;4997513;28;64084;-85
2022/07/23 07:03:47;;;;;;;;;50.25;37.00;;;;;21.57;68.03;101660.94;5015858;28;45485;-85
2022/07/23 07:06:12;;;;;;;;;46.00;35.75;;;;;21.61;67.98;101668.59;4997392;28;71766;-85
2022/07/23 07:08:38;;;;;;;;;45.75;33.75;;;;;21.62;67.84;101666.81;4998219;28;47085;-85
2022/07/23 07:11:03;;;;;;;;;44.75;34.25;;;;;21.64;68.42;101672.88;4981853;28;45429;-84
2022/07/23 07:13:28;;;;;;;;;48.25;36.50;;;;;21.68;67.80;101671.72;4980931;28;64948;-85
2022/07/23 07:15:54;;;;;;;;;47.50;36.00;;;;;21.64;67.69;101672.88;4997467;28;67389;-85
2022/07/23 07:18:21;;;;;;;;;48.25;34.50;;;;;21.75;68.00;101686.31;4980471;28;65051;-85
2022/07/23 07:20:46;;;;;;;;;44.75;35.00;;;;;21.87;67.65;101686.50;4981831;28;45439;-84
2022/07/23 07:23:12;;;;;;;;;49.00;36.75;;;;;21.95;67.55;101686.88;4997350;28;59142;-85
2022/07/23 07:25:37;;;;;;;;;44.75;35.75;;;;;21.96;66.90;101691.25;4997374;28;45580;-84
2022/07/23 07:28:03;;;;;;;;;48.00;36.00;;;;;21.92;66.92;101690.56;5015329;28;53771;-85
2022/07/23 07:30:28;;;;;;;;;47.00;36.00;;;;;21.89;67.00;101685.44;5015472;28;45415;-85
2022/07/23 07:32:53;;;;;;;;;52.00;38.50;;;;;21.90;67.36;101689.81;5014381;28;67504;-85
2022/07/23 07:35:19;;;;;;;;;49.75;35.75;;;;;21.95;67.33;101690.41;4996954;28;72509;-85
2022/07/23 07:37:44;;;;;;;;;49.75;35.00;;;;;21.99;67.09;101701.63;4986405;28;69230;-85
2022/07/23 07:40:10;;;;;;;;;48.00;38.00;;;;;22.01;67.23;101694.47;4994094;28;45264;-85
2022/07/23 07:42:46;;;;;;;;;48.50;33.50;;;;;22.07;67.45;101704.66;4998079;28;45352;-84
2022/07/23 07:45:12;;;;;;;;;47.50;38.00;;;;;22.10;67.06;101696.53;4997830;28;45600;-85
2022/07/23 07:47:37;;;;;;;;;52.75;39.00;;;;;22.18;66.66;101696.91;5015028;28;45423;-84
2022/07/23 07:50:03;;;;;;;;;48.50;35.50;;;;;22.27;66.97;101705.25;4980391;28;68681;-84
2022/07/23 07:52:28;;;;;;;;;47.75;36.50;;;;;22.36;66.88;101702.88;4997789;28;45646;-84
2022/07/23 07:54:53;;;;;;;;;49.75;37.25;;;;;22.52;66.29;101699.25;5015283;28;46077;-84
2022/07/23 07:57:19;;;;;;;;;50.25;35.50;;;;;22.59;66.00;101700.56;5014377;28;67552;-84
2022/07/23 07:59:44;;;;;;;;;46.25;35.75;;;;;22.65;65.75;101704.63;4997097;28;61690;-84
2022/07/23 08:02:09;;;;;;;;;46.75;36.25;;;;;22.75;65.78;101708.34;4997064;28;45581;-85
2022/07/23 08:04:35;;;;;;;;;48.00;34.50;;;;;22.81;65.45;101711.47;4996616;28;69437;-85
2022/07/23 08:07:00;;;;;;;;;45.50;33.25;;;;;22.83;64.89;101719.34;4996500;28;73769;-85
2022/07/23 08:09:25;;;;;;;;;48.50;33.50;;;;;22.78;65.19;101713.47;4996875;28;59680;-84
2022/07/23 08:11:51;;;;;;;;;47.50;35.50;;;;;22.75;64.70;101708.34;5014565;28;62325;-85
2022/07/23 08:14:17;;;;;;;;;40.75;31.50;;;;;22.75;65.30;101714.53;4997499;28;47355;-85
2022/07/23 08:16:42;;;;;;;;;44.25;33.50;;;;;22.76;65.33;101715.38;5014691;28;45474;-85
2022/07/23 08:19:08;;;;;;;;;31.25;19.75;;;;;22.88;65.07;101719.91;4990958;28;45392;-85
2022/07/23 08:21:33;;;;;;;;;39.50;32.25;;;;;23.07;64.59;101724.00;4985791;28;45897;-84
2022/07/23 08:23:58;;;;;;;;;47.50;35.00;;;;;23.10;64.34;101714.03;4960062;28;76463;-84
2022/07/23 08:26:24;;;;;;;;;40.25;31.50;;;;;23.16;63.97;101731.34;4976841;28;69812;-86
2022/07/23 08:28:49;;;;;;;;;40.50;34.00;;;;;23.16;63.84;101736.66;4995051;28;52504;-86
2022/07/23 08:31:16;;;;;;;;;46.50;33.50;;;;;23.17;63.65;101741.03;5003794;28;54375;-87
2022/07/23 08:33:41;;;;;;;;;42.25;33.00;;;;;23.20;63.70;101738.19;4964483;28;48317;-87
2022/07/23 08:36:07;;;;;;;;;44.50;32.25;;;;;23.19;63.52;101741.78;4977944;28;45394;-87
2022/07/23 08:38:33;;;;;;;;;46.50;37.00;;;;;23.16;63.62;101748.16;4981103;28;45399;-85
2022/07/23 08:40:58;;;;;;;;;46.25;32.00;;;;;23.17;63.17;101749.00;4998664;28;45403;-87
2022/07/23 08:43:29;;;;;;;;;44.50;33.75;;;;;23.21;63.84;101745.19;4981488;28;46253;-88
2022/07/23 08:45:57;;;;;;;;;30.75;29.00;;;;;23.28;62.89;101749.16;5002323;28;45751;-87
2022/07/23 08:48:24;;;;;;;;;42.00;33.50;;;;;23.31;63.21;101748.94;4996679;28;45570;-86
2022/07/23 08:50:52;;;;;;;;;40.50;31.50;;;;;23.38;62.94;101750.25;4998634;28;45427;-87
2022/07/23 08:53:18;;;;;;;;;45.50;33.75;;;;;23.52;62.91;101756.44;5003065;28;45415;-88
2022/07/23 08:55:45;;;;;;;;;43.25;30.00;;;;;23.57;62.26;101754.31;4992401;28;45298;-86
2022/07/23 08:58:10;;;;;;;;;41.50;32.75;;;;;23.58;62.29;101761.31;5013603;28;45351;-85
2022/07/23 09:00:36;;;;;;;;;42.50;33.50;;;;;23.53;62.09;101752.81;5003026;28;65373;-87
2022/07/23 09:03:02;;;;;;;;;46.75;33.00;;;;;23.36;61.90;101746.84;4999394;28;76936;-85
2022/07/23 09:05:27;;;;;;;;;38.25;28.75;;;;;23.33;62.74;101747.03;4999238;28;45526;-83
2022/07/23 09:08:03;;;;;;;;;41.25;32.25;;;;;23.42;62.36;101745.59;5018110;28;45365;-82
2022/07/23 09:10:28;;;;;;;;;39.50;32.50;;;;;23.54;62.30;101747.38;4998269;28;45411;-84
2022/07/23 09:12:54;;;;;;;;;41.75;31.00;;;;;23.68;62.07;101740.28;5012100;28;71700;-83
2022/07/23 09:15:19;;;;;;;;;44.25;32.50;;;;;23.77;61.92;101750.28;5012231;28;69910;-85
2022/07/23 09:17:44;;;;;;;;;44.00;35.00;;;;;23.86;61.24;101743.50;4980720;28;62422;-86
2022/07/23 09:20:15;;;;;;;;;41.00;32.50;;;;;24.00;61.56;101750.53;4980043;28;48844;-85
2022/07/23 09:22:52;;;;;;;;;42.75;33.25;;;;;24.19;60.37;101755.41;5008754;28;46581;-85
2022/07/23 09:25:18;;;;;;;;;40.50;28.25;;;;;24.34;60.62;101749.84;4998402;28;45862;-88
2022/07/23 09:27:54;;;;;;;;;38.50;32.50;;;;;24.54;59.86;101742.28;4980570;28;45388;-87
2022/07/23 09:30:22;;;;;;;;;43.00;32.00;;;;;24.75;59.03;101744.34;4981957;28;45443;-89
2022/07/23 09:33:07;;;;;;;;;35.25;31.00;;;;;25.01;59.13;101748.59;4998345;28;46426;-85
2022/07/23 09:35:53;;;;;;;;;33.50;29.75;;;;;25.25;58.46;101742.44;4980361;28;46292;-86
2022/07/23 09:38:20;;;;;;;;;35.75;27.50;;;;;25.43;58.45;101751.69;4997679;28;45348;-86
2022/07/23 09:40:46;;;;;;;;;42.00;32.00;;;;;25.58;57.89;101744.34;4980709;28;45445;-87
2022/07/23 09:43:13;;;;;;;;;34.25;29.75;;;;;25.66;57.02;101747.25;4979736;28;46947;-85
2022/07/23 09:45:41;;;;;;;;;32.25;28.25;;;;;25.69;57.19;101757.69;4980611;28;45552;-85
2022/07/23 09:48:17;;;;;;;;;34.25;29.50;;;;;25.65;56.64;101758.91;4997078;28;45437;-86
2022/07/23 09:50:43;;;;;;;;;34.50;31.50;;;;;25.55;56.59;101755.25;4979751;28;60954;-85
2022/07/23 09:53:10;;;;;;;;;35.25;30.25;;;;;25.41;56.09;101748.31;4985596;28;46685;-85
2022/07/23 09:55:39;;;;;;;;;37.50;30.75;;;;;25.36;56.07;101745.13;4991731;28;45471;-85
2022/07/23 09:58:17;;;;;;;;;40.50;29.00;;;;;25.42;56.13;101752.66;5001445;28;45495;-86
2022/07/23 10:00:45;;;;;;;;;36.00;28.75;;;;;25.55;56.16;101754.41;4959588;28;45470;-86
2022/07/23 10:03:12;;;;;;;;;36.25;29.00;;;;;25.71;55.38;101748.75;4983161;28;47682;-85
2022/07/23 10:05:38;;;;;;;;;33.75;30.00;;;;;25.78;54.78;101740.16;5008417;28;55001;-85
2022/07/23 10:08:06;;;;;;;;;34.50;30.25;;;;;25.81;55.45;101736.38;4972000;28;45404;-86
2022/07/23 10:10:31;;;;;;;;;30.00;30.00;;;;;25.92;54.91;101747.09;4978741;28;45386;-85
2022/07/23 10:15:22;;;;;;;;;26.50;26.00;;;;;25.86;53.75;101732.38;4998198;28;45720;-85
2022/07/23 10:17:48;;;;;;;;;29.75;25.25;;;;;25.91;54.05;101740.03;4982586;28;45401;-85
2022/07/23 10:20:13;;;;;;;;;31.75;27.25;;;;;26.16;55.13;101749.66;4998824;28;45396;-85
2022/07/23 10:23:02;;;;;;;;;29.50;27.50;;;;;26.34;53.82;101735.81;4997871;28;63848;-85
2022/07/23 10:25:48;;;;;;;;;35.25;30.00;;;;;26.58;54.70;101739.19;4979277;28;45487;-85
2022/07/23 10:28:33;;;;;;;;;29.75;24.25;;;;;26.84;52.44;101742.41;4996751;28;45401;-85
2022/07/23 10:31:18;;;;;;;;;32.00;27.00;;;;;26.90;52.38;101740.22;5004401;28;45474;-85
2022/07/23 10:34:03;;;;;;;;;35.00;28.50;;;;;27.00;52.49;101751.81;4982396;28;47455;-85
2022/07/23 10:36:38;;;;;;;;;32.75;24.50;;;;;27.15;52.41;101755.03;5016357;28;46012;-85
2022/07/23 10:39:06;;;;;;;;;31.50;26.25;;;;;27.28;51.71;101755.75;4980989;28;45387;-85
2022/07/23 10:41:38;;;;;;;;;34.25;27.75;;;;;27.44;51.67;101757.13;4962330;28;45408;-85
2022/07/23 10:44:13;;;;;;;;;30.00;25.50;;;;;27.51;50.28;101761.00;5014873;28;45374;-85
2022/07/23 10:49:34;;;;;;;;;32.75;27.75;;;;;27.01;51.10;101764.22;5013150;28;45337;-85
2022/07/23 10:52:18;;;;;;;;;33.25;28.00;;;;;27.07;50.87;101776.22;4993002;28;45345;-86
2022/07/23 10:54:50;;;;;;;;;30.00;26.00;;;;;27.16;50.65;101780.81;4995614;28;46351;-85
2022/07/23 10:57:18;;;;;;;;;31.00;26.00;;;;;27.27;49.78;101786.13;4999467;28;45790;-86
2022/07/23 11:00:09;;;;;;;;;25.00;22.75;;;;;27.32;50.71;101793.75;4988834;28;45426;-86
2022/07/23 11:02:35;;;;;;;;;29.50;24.75;;;;;27.49;50.07;101790.53;5002317;28;45298;-85
2022/07/23 11:05:05;;;;;;;;;32.75;27.00;;;;;27.68;49.91;101786.28;4983141;28;45481;-85
2022/07/23 11:07:31;;;;;;;;;32.75;24.00;;;;;27.67;49.32;101792.59;4996030;28;45315;-85
2022/07/23 11:09:56;;;;;;;;;30.00;25.75;;;;;27.46;49.34;101788.09;5000399;28;61392;-86
2022/07/23 11:12:28;;;;;;;;;34.00;24.25;;;;;27.14;50.03;101796.97;4997636;28;61920;-85